createdAt,value
2024-02-07T00:01:36.214Z,100.00
2024-02-07T00:04:04.888Z,100.00
2024-02-07T00:06:32.149Z,100.00
2024-02-07T00:08:59.015Z,100.00
2024-02-07T00:11:25.858Z,100.00
2024-02-07T00:13:52.781Z,100.00
2024-02-07T00:16:21.130Z,100.00
2024-02-07T00:18:48.026Z,100.00
2024-02-07T00:21:14.948Z,100.00
2024-02-07T00:23:42.266Z,100.00
2024-02-07T00:26:09.097Z,100.00
2024-02-07T00:28:35.908Z,100.00
2024-02-07T00:31:05.614Z,100.00
2024-02-07T00:33:32.459Z,100.00
2024-02-07T00:35:59.484Z,100.00
2024-02-07T00:38:26.298Z,100.00
2024-02-07T00:40:53.261Z,100.00
2024-02-07T00:43:21.325Z,100.00
2024-02-07T00:45:48.779Z,100.00
2024-02-07T00:48:15.803Z,100.00
2024-02-07T00:50:42.650Z,100.00
2024-02-07T00:53:09.528Z,100.00
2024-02-07T00:55:36.379Z,100.00
2024-02-07T00:58:03.569Z,100.00
2024-02-07T01:00:30.403Z,100.00
2024-02-07T01:02:57.209Z,100.00
2024-02-07T01:05:24.134Z,100.00
2024-02-07T01:07:51.201Z,100.00
2024-02-07T01:10:18.140Z,100.00
2024-02-07T01:12:44.995Z,100.00
2024-02-07T01:15:11.914Z,100.00
2024-02-07T01:17:38.828Z,100.00
2024-02-07T01:20:11.094Z,100.00
2024-02-07T01:22:38.779Z,100.00
2024-02-07T01:25:06.767Z,100.00
2024-02-07T01:27:33.589Z,100.00
2024-02-07T01:30:00.468Z,100.00
2024-02-07T01:32:27.303Z,100.00
2024-02-07T01:34:54.189Z,100.00
2024-02-07T01:37:21.508Z,100.00
2024-02-07T01:39:48.357Z,100.00
2024-02-07T01:42:15.207Z,100.00
2024-02-07T01:44:42.114Z,100.00
2024-02-07T01:47:13.796Z,100.00
2024-02-07T01:49:51.429Z,100.00
2024-02-07T01:52:21.115Z,100.00
2024-02-07T01:54:48.280Z,100.00
2024-02-07T01:57:15.631Z,100.00
2024-02-07T01:59:43.300Z,100.00
2024-02-07T02:02:10.828Z,100.00
2024-02-07T02:04:38.780Z,100.00
2024-02-07T02:07:05.756Z,100.00
2024-02-07T02:09:32.635Z,100.00
2024-02-07T02:12:01.887Z,100.00
2024-02-07T02:14:29.974Z,100.00
2024-02-07T02:16:57.010Z,100.00
2024-02-07T02:19:24.313Z,100.00
2024-02-07T02:22:19.385Z,100.00
2024-02-07T02:24:58.769Z,100.00
2024-02-07T02:27:37.713Z,100.00
2024-02-07T02:30:13.497Z,100.00
2024-02-07T02:32:44.185Z,100.00
2024-02-07T02:35:13.918Z,100.00
2024-02-07T02:37:40.923Z,100.00
2024-02-07T02:40:08.838Z,100.00
2024-02-07T02:42:35.801Z,100.00
2024-02-07T02:45:02.725Z,100.00
2024-02-07T02:47:30.271Z,100.00
2024-02-07T02:49:57.294Z,100.00
2024-02-07T02:52:24.293Z,100.00
2024-02-07T02:54:51.280Z,100.00
2024-02-07T02:57:20.896Z,100.00
2024-02-07T02:59:49.768Z,100.00
2024-02-07T03:02:21.466Z,100.00
2024-02-07T03:04:51.313Z,100.00
2024-02-07T03:07:36.535Z,100.00
2024-02-07T03:10:07.052Z,100.00
2024-02-07T03:12:34.041Z,100.00
2024-02-07T03:15:00.856Z,100.00
2024-02-07T03:17:27.804Z,100.00
2024-02-07T03:19:55.397Z,100.00
2024-02-07T03:22:22.294Z,100.00
2024-02-07T03:24:50.217Z,100.00
2024-02-07T03:27:17.103Z,100.00
2024-02-07T03:29:44.359Z,100.00
2024-02-07T03:32:11.331Z,100.00
2024-02-07T03:34:38.328Z,100.00
2024-02-07T03:37:06.368Z,100.00
2024-02-07T03:39:33.433Z,100.00
2024-02-07T03:42:00.422Z,100.00
2024-02-07T03:44:27.337Z,100.00
2024-02-07T03:46:56.157Z,100.00
2024-02-07T03:49:23.113Z,100.00
2024-02-07T03:51:49.973Z,100.00
2024-02-07T03:54:16.837Z,100.00
2024-02-07T03:56:43.685Z,100.00
2024-02-07T03:59:10.462Z,100.00
2024-02-07T04:01:38.017Z,100.00
2024-02-07T04:04:07.198Z,100.00
2024-02-07T04:06:35.263Z,100.00
2024-02-07T04:09:06.909Z,100.00
2024-02-07T04:11:34.089Z,100.00
2024-02-07T04:14:00.903Z,100.00
2024-02-07T04:16:46.580Z,100.00
2024-02-07T04:19:32.141Z,100.00
2024-02-07T04:22:17.573Z,100.00
2024-02-07T04:25:03.072Z,100.00
2024-02-07T04:27:48.340Z,100.00
2024-02-07T04:30:33.548Z,100.00
2024-02-07T04:33:19.087Z,100.00
2024-02-07T04:36:04.842Z,100.00
2024-02-07T04:38:50.501Z,100.00
2024-02-07T04:41:35.776Z,100.00
2024-02-07T04:44:21.083Z,100.00
2024-02-07T04:47:06.425Z,100.00
2024-02-07T04:49:51.920Z,100.00
2024-02-07T04:52:37.359Z,100.00
2024-02-07T04:55:23.347Z,100.00
2024-02-07T04:58:08.792Z,100.00
2024-02-07T05:00:53.766Z,100.00
2024-02-07T05:03:39.140Z,100.00
2024-02-07T05:06:26.095Z,100.00
2024-02-07T05:09:11.296Z,100.00
2024-02-07T05:11:56.796Z,100.00
2024-02-07T05:14:42.058Z,100.00
2024-02-07T05:17:08.870Z,100.00
2024-02-07T05:19:38.569Z,100.00
2024-02-07T05:22:05.499Z,100.00
2024-02-07T05:24:32.808Z,100.00
2024-02-07T05:26:59.678Z,100.00
2024-02-07T05:29:30.745Z,100.00
2024-02-07T05:31:57.740Z,100.00
2024-02-07T05:34:25.806Z,100.00
2024-02-07T05:36:52.751Z,100.00
2024-02-07T05:39:19.636Z,100.00
2024-02-07T05:41:48.009Z,100.00
2024-02-07T05:44:14.811Z,100.00
2024-02-07T05:46:42.407Z,100.00
2024-02-07T05:49:09.315Z,100.00
2024-02-07T05:51:36.675Z,100.00
2024-02-07T05:54:03.521Z,100.00
2024-02-07T05:56:31.988Z,100.00
2024-02-07T05:58:58.933Z,100.00
2024-02-07T06:01:30.776Z,100.00
2024-02-07T06:04:00.073Z,100.00
2024-02-07T06:06:31.552Z,100.00
2024-02-07T06:09:00.464Z,100.00
2024-02-07T06:11:33.397Z,100.00
2024-02-07T06:14:06.038Z,100.00
2024-02-07T06:16:36.101Z,100.00
2024-02-07T06:19:07.876Z,100.00
2024-02-07T06:21:37.389Z,100.00
2024-02-07T06:24:05.001Z,100.00
2024-02-07T06:26:32.961Z,100.00
2024-02-07T06:28:59.962Z,100.00
2024-02-07T06:31:27.633Z,100.00
2024-02-07T06:33:55.040Z,100.00
2024-02-07T06:36:21.965Z,100.00
2024-02-07T06:38:49.310Z,100.00
2024-02-07T06:41:16.426Z,100.00
2024-02-07T06:43:44.764Z,100.00
2024-02-07T06:46:12.384Z,100.00
2024-02-07T06:48:40.993Z,100.00
2024-02-07T06:51:15.552Z,100.00
2024-02-07T06:53:43.074Z,100.00
2024-02-07T06:56:10.148Z,100.00
2024-02-07T06:58:38.128Z,100.00
2024-02-07T07:01:08.056Z,100.00
2024-02-07T07:03:35.591Z,100.00
2024-02-07T07:06:03.663Z,100.00
2024-02-07T07:08:30.660Z,100.00
2024-02-07T07:10:57.615Z,100.00
2024-02-07T07:13:48.952Z,100.00
2024-02-07T07:16:16.288Z,100.00
2024-02-07T07:18:44.576Z,100.00
2024-02-07T07:21:12.011Z,100.00
2024-02-07T07:23:39.502Z,100.00
2024-02-07T07:26:06.782Z,100.00
2024-02-07T07:28:34.398Z,100.00
2024-02-07T07:31:04.188Z,100.00
2024-02-07T07:33:31.063Z,100.00
2024-02-07T07:35:58.152Z,100.00
2024-02-07T07:38:24.980Z,100.00
2024-02-07T07:40:52.657Z,100.00
2024-02-07T07:43:19.923Z,100.00
2024-02-07T07:45:47.299Z,100.00
2024-02-07T07:48:14.208Z,100.00
2024-02-07T07:50:41.391Z,100.00
2024-02-07T07:53:08.232Z,100.00
2024-02-07T07:55:35.131Z,100.00
2024-02-07T07:58:02.086Z,100.00
2024-02-07T08:00:29.108Z,100.00
2024-02-07T08:02:55.924Z,100.00
2024-02-07T08:05:23.074Z,100.00
2024-02-07T08:07:49.948Z,100.00
2024-02-07T08:10:17.278Z,100.00
2024-02-07T08:12:46.389Z,100.00
2024-02-07T08:15:13.380Z,100.00
2024-02-07T08:17:40.031Z,100.00
2024-02-07T08:20:07.433Z,100.00
2024-02-07T08:22:34.848Z,100.00
2024-02-07T08:25:03.136Z,100.00
2024-02-07T08:27:29.887Z,100.00
2024-02-07T08:29:57.149Z,100.00
2024-02-07T08:32:24.319Z,100.00
2024-02-07T08:34:51.432Z,89.74
2024-02-07T08:37:21.887Z,72.17
2024-02-07T08:39:50.051Z,63.37
2024-02-07T08:42:17.098Z,56.34
2024-02-07T08:44:44.256Z,52.37
2024-02-07T08:47:13.499Z,54.65
2024-02-07T08:49:42.146Z,52.96
2024-02-07T08:52:09.046Z,51.51
2024-02-07T08:54:36.854Z,50.36
2024-02-07T08:57:04.935Z,51.12
2024-02-07T08:59:33.283Z,48.79
2024-02-07T09:02:00.222Z,46.14
2024-02-07T09:04:27.273Z,45.28
2024-02-07T09:06:54.134Z,44.77
2024-02-07T09:09:20.930Z,44.34
2024-02-07T09:11:47.696Z,44.71
2024-02-07T09:14:15.270Z,44.74
2024-02-07T09:16:42.072Z,46.15
2024-02-07T09:19:09.168Z,44.72
2024-02-07T09:21:36.228Z,44.80
2024-02-07T09:24:06.002Z,46.42
2024-02-07T09:26:32.778Z,45.62
2024-02-07T09:29:01.031Z,45.17
2024-02-07T09:31:28.138Z,42.33
2024-02-07T09:33:56.066Z,40.63
2024-02-07T09:36:25.708Z,39.28
2024-02-07T09:38:52.898Z,38.12
2024-02-07T09:41:20.748Z,36.16
2024-02-07T09:43:49.129Z,32.24
2024-02-07T09:46:22.841Z,31.74
2024-02-07T09:48:51.410Z,28.73
2024-02-07T09:51:19.966Z,28.11
2024-02-07T09:53:48.221Z,28.89
2024-02-07T09:56:16.661Z,26.21
2024-02-07T09:58:44.212Z,25.46
2024-02-07T10:01:14.507Z,26.42
2024-02-07T10:03:44.304Z,25.57
2024-02-07T10:06:14.583Z,25.20
2024-02-07T10:08:48.097Z,24.66
2024-02-07T10:11:15.418Z,24.54
2024-02-07T10:13:42.365Z,24.94
2024-02-07T10:16:10.491Z,23.47
2024-02-07T10:18:37.503Z,23.09
2024-02-07T10:21:05.654Z,23.85
2024-02-07T10:23:33.138Z,23.11
2024-02-07T10:26:02.236Z,23.82
2024-02-07T10:28:31.734Z,23.45
2024-02-07T10:31:05.512Z,23.11
2024-02-07T10:33:45.618Z,21.63
2024-02-07T10:36:16.539Z,22.49
2024-02-07T10:38:43.404Z,21.61
2024-02-07T10:41:11.741Z,21.58
2024-02-07T10:43:42.111Z,22.22
2024-02-07T10:46:18.417Z,20.42
2024-02-07T10:48:46.150Z,21.06
2024-02-07T10:51:13.349Z,20.35
2024-02-07T10:53:40.867Z,21.08
2024-02-07T10:56:12.888Z,20.62
2024-02-07T10:58:40.981Z,21.85
2024-02-07T11:01:08.990Z,22.32
2024-02-07T11:03:37.219Z,23.62
2024-02-07T11:06:05.414Z,23.91
2024-02-07T11:08:32.834Z,27.03
2024-02-07T11:11:01.632Z,27.96
2024-02-07T11:13:29.519Z,28.47
2024-02-07T11:15:58.238Z,28.47
2024-02-07T11:18:26.888Z,27.99
2024-02-07T11:20:56.510Z,29.34
2024-02-07T11:23:29.325Z,30.50
2024-02-07T11:25:56.487Z,30.50
2024-02-07T11:28:24.630Z,30.06
2024-02-07T11:30:55.957Z,30.95
2024-02-07T11:33:24.879Z,32.31
2024-02-07T11:35:53.171Z,31.90
2024-02-07T11:38:23.750Z,28.23
2024-02-07T11:40:50.687Z,24.97
2024-02-07T11:43:22.226Z,23.77
2024-02-07T11:45:52.434Z,24.32
2024-02-07T11:48:26.846Z,22.99
2024-02-07T11:50:54.475Z,24.07
2024-02-07T11:53:28.022Z,25.03
2024-02-07T11:55:55.169Z,25.85
2024-02-07T11:58:24.500Z,26.65
2024-02-07T12:00:51.981Z,26.60
2024-02-07T12:03:19.889Z,27.80
2024-02-07T12:05:48.549Z,27.47
2024-02-07T12:08:17.542Z,29.95
2024-02-07T12:10:44.513Z,29.23
2024-02-07T12:13:16.430Z,28.46
2024-02-07T12:15:44.614Z,29.25
2024-02-07T12:18:11.978Z,30.61
2024-02-07T12:20:39.789Z,30.52
2024-02-07T12:23:07.766Z,29.28
2024-02-07T12:25:34.969Z,29.13
2024-02-07T12:28:14.693Z,32.01
2024-02-07T12:30:41.571Z,32.07
2024-02-07T12:33:11.770Z,32.58
2024-02-07T12:35:49.331Z,31.47
2024-02-07T12:38:17.754Z,31.55
2024-02-07T12:40:52.137Z,31.53
2024-02-07T12:43:25.839Z,32.78
2024-02-07T12:46:02.704Z,30.55
2024-02-07T12:48:30.349Z,30.97
2024-02-07T12:50:59.685Z,30.89
2024-02-07T12:53:28.307Z,32.21
2024-02-07T12:55:55.685Z,30.99
2024-02-07T12:58:25.558Z,28.83
2024-02-07T13:01:03.085Z,25.09
2024-02-07T13:03:34.186Z,25.06
2024-02-07T13:06:01.345Z,24.97
2024-02-07T13:08:28.288Z,24.93
2024-02-07T13:10:55.258Z,25.81
2024-02-07T13:13:23.903Z,27.19
2024-02-07T13:16:15.321Z,26.64
2024-02-07T13:18:44.324Z,26.04
2024-02-07T13:21:11.774Z,26.65
2024-02-07T13:23:40.289Z,26.07
2024-02-07T13:26:09.812Z,24.96
2024-02-07T13:28:38.035Z,24.11
2024-02-07T13:31:05.736Z,22.96
2024-02-07T13:33:32.658Z,23.56
2024-02-07T13:35:59.734Z,22.57
2024-02-07T13:38:33.810Z,22.90
2024-02-07T13:41:04.482Z,21.49
2024-02-07T13:43:31.484Z,21.13
2024-02-07T13:45:59.222Z,21.29
2024-02-07T13:48:30.026Z,23.99
2024-02-07T13:51:00.647Z,23.32
2024-02-07T13:53:27.996Z,23.90
2024-02-07T13:55:55.376Z,23.36
2024-02-07T13:58:22.293Z,23.26
2024-02-07T14:00:51.428Z,24.04
2024-02-07T14:03:18.375Z,25.20
2024-02-07T14:05:45.221Z,25.48
2024-02-07T14:08:14.566Z,24.96
2024-02-07T14:10:42.007Z,26.66
2024-02-07T14:13:10.026Z,26.33
2024-02-07T14:15:38.263Z,25.44
2024-02-07T14:18:05.243Z,25.27
2024-02-07T14:20:32.095Z,25.60
2024-02-07T14:22:59.101Z,26.01
2024-02-07T14:25:26.045Z,26.61
2024-02-07T14:27:52.906Z,25.61
2024-02-07T14:30:23.756Z,25.65
2024-02-07T14:32:53.816Z,25.14
2024-02-07T14:35:20.748Z,26.29
2024-02-07T14:37:47.916Z,26.65
2024-02-07T14:40:15.987Z,28.87
2024-02-07T14:42:42.911Z,31.46
2024-02-07T14:45:12.740Z,33.76
2024-02-07T14:47:40.087Z,34.53
2024-02-07T14:50:07.266Z,36.22
2024-02-07T14:52:34.209Z,36.84
2024-02-07T14:55:01.494Z,38.21
2024-02-07T14:57:28.386Z,38.78
2024-02-07T14:59:55.205Z,40.35
2024-02-07T15:02:22.062Z,40.25
2024-02-07T15:04:49.071Z,40.39
2024-02-07T15:07:16.094Z,41.69
2024-02-07T15:09:44.374Z,43.33
2024-02-07T15:12:12.350Z,43.96
2024-02-07T15:14:39.151Z,45.46
2024-02-07T15:17:06.027Z,47.17
2024-02-07T15:19:33.028Z,46.49
2024-02-07T15:21:59.955Z,48.42
2024-02-07T15:24:26.791Z,48.32
2024-02-07T15:26:53.658Z,49.11
2024-02-07T15:29:21.160Z,52.41
2024-02-07T15:31:48.037Z,53.05
2024-02-07T15:34:15.069Z,52.66
2024-02-07T15:36:42.002Z,53.29
2024-02-07T15:39:08.905Z,54.40
2024-02-07T15:41:35.973Z,57.01
2024-02-07T15:44:03.596Z,58.59
2024-02-07T15:46:30.510Z,60.30
2024-02-07T15:49:06.812Z,61.72
2024-02-07T15:51:36.423Z,62.51
2024-02-07T15:54:03.457Z,65.37
2024-02-07T15:56:32.080Z,69.54
2024-02-07T15:58:59.296Z,70.01
2024-02-07T16:01:36.519Z,74.48
2024-02-07T16:04:08.651Z,74.27
2024-02-07T16:06:38.649Z,75.43
2024-02-07T16:09:05.572Z,77.52
2024-02-07T16:11:32.359Z,81.15
2024-02-07T16:13:59.212Z,83.54
2024-02-07T16:16:26.228Z,84.94
2024-02-07T16:18:53.029Z,86.24
2024-02-07T16:21:19.937Z,87.03
2024-02-07T16:23:46.766Z,87.32
2024-02-07T16:26:13.621Z,88.03
2024-02-07T16:28:40.469Z,93.31
2024-02-07T16:31:08.419Z,94.09
2024-02-07T16:33:35.308Z,92.90
2024-02-07T16:36:02.195Z,95.36
2024-02-07T16:38:29.168Z,96.13
2024-02-07T16:40:56.058Z,95.78
2024-02-07T16:43:22.902Z,96.34
2024-02-07T16:45:49.739Z,100.00
2024-02-07T16:48:16.803Z,100.00
2024-02-07T16:50:43.725Z,100.00
2024-02-07T16:53:10.700Z,100.00
2024-02-07T16:55:37.659Z,100.00
2024-02-07T16:58:06.353Z,100.00
2024-02-07T17:00:33.520Z,100.00
2024-02-07T17:03:00.388Z,100.00
2024-02-07T17:05:27.332Z,100.00
2024-02-07T17:07:57.089Z,100.00
2024-02-07T17:10:24.102Z,100.00
2024-02-07T17:12:50.914Z,100.00
2024-02-07T17:15:23.943Z,100.00
2024-02-07T17:17:50.839Z,100.00
2024-02-07T17:20:19.045Z,100.00
2024-02-07T17:22:46.028Z,100.00
2024-02-07T17:25:13.720Z,100.00
2024-02-07T17:27:41.865Z,100.00
2024-02-07T17:30:14.705Z,100.00
2024-02-07T17:32:48.802Z,100.00
2024-02-07T17:35:40.317Z,100.00
2024-02-07T17:38:07.176Z,100.00
2024-02-07T17:40:34.051Z,100.00
2024-02-07T17:43:00.942Z,100.00
2024-02-07T17:45:27.950Z,100.00
2024-02-07T17:47:55.110Z,100.00
2024-02-07T17:50:46.646Z,100.00
2024-02-07T17:53:13.726Z,100.00
2024-02-07T17:55:43.069Z,100.00
2024-02-07T17:58:11.154Z,100.00
2024-02-07T18:00:38.008Z,100.00
2024-02-07T18:03:05.152Z,100.00
2024-02-07T18:05:34.347Z,100.00
2024-02-07T18:08:01.449Z,100.00
2024-02-07T18:10:32.922Z,100.00
2024-02-07T18:13:00.254Z,100.00
2024-02-07T18:15:27.139Z,100.00
2024-02-07T18:17:54.069Z,100.00
2024-02-07T18:20:20.997Z,100.00
2024-02-07T18:22:47.889Z,100.00
2024-02-07T18:25:14.800Z,100.00
2024-02-07T18:27:41.587Z,100.00
2024-02-07T18:30:10.062Z,100.00
2024-02-07T18:32:37.817Z,100.00
2024-02-07T18:35:05.129Z,100.00
2024-02-07T18:37:32.030Z,100.00
2024-02-07T18:39:59.088Z,100.00
2024-02-07T18:42:25.939Z,100.00
2024-02-07T18:44:52.755Z,100.00
2024-02-07T18:47:19.703Z,100.00
2024-02-07T18:49:46.934Z,100.00
2024-02-07T18:52:13.810Z,100.00
2024-02-07T18:54:40.617Z,100.00
2024-02-07T18:57:07.467Z,100.00
2024-02-07T18:59:34.257Z,100.00
2024-02-07T19:02:01.133Z,100.00
2024-02-07T19:04:30.086Z,100.00
2024-02-07T19:06:57.205Z,100.00
2024-02-07T19:09:25.022Z,100.00
2024-02-07T19:11:57.004Z,100.00
2024-02-07T19:14:25.846Z,100.00
2024-02-07T19:16:53.746Z,100.00
2024-02-07T19:19:22.305Z,100.00
2024-02-07T19:21:49.277Z,100.00
2024-02-07T19:24:20.662Z,100.00
2024-02-07T19:26:51.573Z,100.00
2024-02-07T19:29:18.581Z,100.00
2024-02-07T19:31:45.497Z,100.00
2024-02-07T19:34:12.611Z,100.00
2024-02-07T19:36:39.494Z,100.00
2024-02-07T19:39:06.409Z,100.00
2024-02-07T19:41:33.335Z,100.00
2024-02-07T19:44:00.321Z,100.00
2024-02-07T19:46:28.329Z,100.00
2024-02-07T19:48:55.427Z,100.00
2024-02-07T19:51:22.397Z,100.00
2024-02-07T19:53:49.268Z,100.00
2024-02-07T19:56:16.877Z,100.00
2024-02-07T19:58:43.847Z,100.00
2024-02-07T20:01:10.900Z,100.00
2024-02-07T20:03:37.885Z,100.00
2024-02-07T20:06:05.071Z,100.00
2024-02-07T20:08:32.026Z,100.00
2024-02-07T20:10:59.034Z,100.00
2024-02-07T20:13:25.994Z,100.00
2024-02-07T20:15:52.893Z,100.00
2024-02-07T20:18:19.822Z,100.00
2024-02-07T20:20:47.904Z,100.00
2024-02-07T20:23:23.396Z,100.00
2024-02-07T20:26:03.772Z,100.00
2024-02-07T20:28:33.106Z,100.00
2024-02-07T20:31:00.068Z,100.00
2024-02-07T20:33:26.968Z,100.00
2024-02-07T20:35:53.864Z,100.00
2024-02-07T20:38:20.697Z,100.00
2024-02-07T20:40:47.564Z,100.00
2024-02-07T20:43:14.394Z,100.00
2024-02-07T20:45:41.247Z,100.00
2024-02-07T20:48:08.707Z,100.00
2024-02-07T20:50:35.991Z,100.00
2024-02-07T20:53:04.326Z,100.00
2024-02-07T20:55:31.386Z,100.00
2024-02-07T20:57:58.311Z,100.00
2024-02-07T21:00:26.439Z,100.00
2024-02-07T21:02:56.063Z,100.00
2024-02-07T21:05:23.000Z,100.00
2024-02-07T21:07:50.769Z,100.00
2024-02-07T21:10:17.686Z,100.00
2024-02-07T21:12:44.655Z,100.00
2024-02-07T21:15:11.505Z,100.00
2024-02-07T21:17:41.183Z,100.00
2024-02-07T21:20:10.135Z,100.00
2024-02-07T21:22:37.259Z,100.00
2024-02-07T21:25:04.644Z,100.00
2024-02-07T21:27:31.539Z,100.00
2024-02-07T21:29:58.395Z,100.00
2024-02-07T21:32:25.468Z,100.00
2024-02-07T21:34:52.416Z,100.00
2024-02-07T21:37:19.391Z,100.00
2024-02-07T21:39:46.330Z,100.00
2024-02-07T21:42:13.187Z,100.00
2024-02-07T21:44:40.080Z,100.00
2024-02-07T21:47:07.084Z,100.00
2024-02-07T21:49:34.247Z,100.00
2024-02-07T21:52:01.105Z,100.00
2024-02-07T21:54:27.928Z,100.00
2024-02-07T21:56:55.010Z,100.00
2024-02-07T21:59:21.808Z,100.00
2024-02-07T22:01:48.703Z,100.00
2024-02-07T22:04:15.690Z,100.00
2024-02-07T22:06:43.855Z,100.00
2024-02-07T22:09:10.719Z,100.00
2024-02-07T22:11:37.604Z,100.00
2024-02-07T22:14:04.702Z,100.00
2024-02-07T22:16:32.461Z,100.00
2024-02-07T22:18:59.517Z,100.00
2024-02-07T22:21:26.421Z,100.00
2024-02-07T22:23:53.382Z,100.00
2024-02-07T22:26:20.248Z,100.00
2024-02-07T22:28:49.032Z,100.00
2024-02-07T22:31:23.120Z,100.00
2024-02-07T22:33:51.129Z,100.00
2024-02-07T22:36:20.546Z,100.00
2024-02-07T22:38:47.497Z,100.00
2024-02-07T22:41:14.772Z,100.00
2024-02-07T22:43:41.690Z,100.00
2024-02-07T22:46:11.641Z,100.00
2024-02-07T22:48:39.150Z,100.00
2024-02-07T22:51:09.774Z,100.00
2024-02-07T22:53:37.514Z,100.00
2024-02-07T22:56:04.693Z,100.00
2024-02-07T22:58:31.577Z,100.00
2024-02-07T23:00:58.516Z,100.00
2024-02-07T23:03:25.370Z,100.00
2024-02-07T23:05:52.510Z,100.00
2024-02-07T23:08:19.882Z,100.00
2024-02-07T23:10:46.826Z,100.00
2024-02-07T23:13:13.834Z,100.00
2024-02-07T23:15:41.185Z,100.00
2024-02-07T23:18:08.628Z,100.00
2024-02-07T23:20:37.058Z,100.00
2024-02-07T23:23:04.082Z,100.00
2024-02-07T23:25:32.074Z,100.00
2024-02-07T23:27:59.151Z,100.00
2024-02-07T23:30:26.017Z,100.00
2024-02-07T23:32:53.664Z,100.00
2024-02-07T23:35:20.583Z,100.00
2024-02-07T23:37:47.469Z,100.00
2024-02-07T23:40:14.552Z,100.00
2024-02-07T23:42:41.424Z,100.00
2024-02-07T23:45:10.034Z,100.00
2024-02-07T23:47:38.434Z,100.00
2024-02-07T23:50:06.937Z,100.00
2024-02-07T23:52:35.742Z,100.00
2024-02-07T23:55:03.735Z,100.00
2024-02-07T23:57:30.674Z,100.00
2024-02-07T23:59:57.546Z,100.00
